Time;durP1;ratioP1;P1;durP2;ratioP2;P2;SDS_P1;SDS_P2;PMS_P1;PMS_P2;Temp;Humidity;BMP_temperature;BMP_pressure;BME280_temperature;BME280_humidity;BME280_pressure;Samples;Min_cycle;Max_cycle;Signal;HPM_P1;HPM_P2
2024/02/13 00:00:46;;;;;;;18.10;13.32;;;10.00;99.90;;;;;;5022203;28;20042;-57
2024/02/13 00:03:12;;;;;;;18.05;12.82;;;10.00;99.90;;;;;;5024371;28;20044;-53
2024/02/13 00:05:41;;;;;;;20.85;12.27;;;9.90;99.90;;;;;;5011849;28;20085;-52
2024/02/13 00:08:10;;;;;;;16.90;11.88;;;9.80;99.90;;;;;;5012488;28;20142;-53
2024/02/13 00:10:36;;;;;;;15.20;10.43;;;9.80;99.90;;;;;;5008137;28;20401;-53
2024/02/13 00:13:03;;;;;;;15.32;10.60;;;9.80;99.90;;;;;;5024541;28;20041;-56
2024/02/13 00:15:28;;;;;;;13.13;9.98;;;9.70;99.90;;;;;;5019662;28;20038;-56
2024/02/13 00:17:54;;;;;;;13.85;10.82;;;9.70;99.90;;;;;;5005098;28;20088;-56
2024/02/13 00:20:20;;;;;;;15.32;10.35;;;9.70;99.90;;;;;;5012284;28;20494;-56
2024/02/13 00:22:48;;;;;;;13.90;10.55;;;9.60;99.90;;;;;;5005017;28;20084;-56
2024/02/13 00:25:33;;;;;;;15.50;10.82;;;9.60;99.90;;;;;;5010854;28;20135;-56
2024/02/13 00:27:59;;;;;;;15.63;11.50;;;9.70;99.90;;;;;;5014066;28;20033;-53
2024/02/13 00:30:25;;;;;;;15.88;11.65;;;9.80;99.90;;;;;;5014052;28;20041;-53
2024/02/13 00:32:50;;;;;;;16.38;11.60;;;9.80;99.90;;;;;;5014353;28;20510;-56
2024/02/13 00:35:18;;;;;;;16.85;11.65;;;9.90;99.90;;;;;;5014419;28;20466;-56
2024/02/13 00:37:43;;;;;;;14.02;10.43;;;9.90;99.90;;;;;;4987729;28;20045;-56
2024/02/13 00:40:12;;;;;;;15.02;10.73;;;9.90;99.90;;;;;;5012915;28;20409;-53
2024/02/13 00:42:38;;;;;;;18.17;10.93;;;10.00;99.90;;;;;;5013994;28;20093;-55
2024/02/13 00:45:10;;;;;;;16.15;10.88;;;9.90;99.90;;;;;;5013564;28;21127;-53
2024/02/13 00:47:36;;;;;;;20.55;12.23;;;9.90;99.90;;;;;;5013428;28;20038;-56
2024/02/13 00:50:03;;;;;;;17.25;11.57;;;9.90;99.90;;;;;;5012564;28;20165;-54
2024/02/13 00:52:28;;;;;;;16.98;10.95;;;9.90;99.90;;;;;;5011944;28;20080;-57
2024/02/13 00:54:55;;;;;;;18.95;11.55;;;9.90;99.90;;;;;;4997407;28;20034;-56
2024/02/13 00:57:21;;;;;;;16.08;10.98;;;9.90;99.90;;;;;;5006757;28;20042;-55
2024/02/13 00:59:48;;;;;;;17.23;11.05;;;9.90;99.90;;;;;;5006658;28;20049;-55
2024/02/13 01:02:17;;;;;;;13.98;9.57;;;9.90;99.90;;;;;;5019684;28;20045;-57
2024/02/13 01:04:43;;;;;;;14.57;9.60;;;9.90;99.90;;;;;;5007505;28;20041;-55
2024/02/13 01:07:08;;;;;;;13.65;9.60;;;9.90;99.90;;;;;;5011177;28;20062;-53
2024/02/13 01:09:34;;;;;;;14.13;9.23;;;9.90;99.90;;;;;;5007643;28;20385;-54
2024/02/13 01:12:03;;;;;;;14.23;9.07;;;9.90;99.90;;;;;;5007079;28;20030;-53
2024/02/13 01:14:29;;;;;;;16.08;9.68;;;9.90;99.90;;;;;;5007451;28;20040;-53
2024/02/13 01:16:56;;;;;;;16.17;9.63;;;9.90;99.90;;;;;;5011158;28;20052;-54
2024/02/13 01:19:22;;;;;;;14.25;9.82;;;9.90;99.90;;;;;;5010340;28;20450;-54
2024/02/13 01:21:48;;;;;;;16.58;9.55;;;9.90;99.90;;;;;;5007859;28;20050;-55
2024/02/13 01:24:15;;;;;;;14.43;9.13;;;10.00;99.90;;;;;;5013298;28;20033;-54
2024/02/13 01:26:42;;;;;;;17.60;10.23;;;10.00;99.90;;;;;;5003738;28;20042;-56
2024/02/13 01:29:08;;;;;;;18.63;10.57;;;10.00;99.90;;;;;;5013696;28;20034;-53
2024/02/13 01:31:34;;;;;;;14.32;9.55;;;10.00;99.90;;;;;;5008905;28;20110;-53
2024/02/13 01:34:00;;;;;;;15.15;9.55;;;10.10;99.90;;;;;;5020511;28;20027;-54
2024/02/13 01:36:26;;;;;;;14.50;9.45;;;10.10;99.90;;;;;;5007174;28;20104;-55
2024/02/13 01:38:52;;;;;;;15.88;9.00;;;10.10;99.90;;;;;;5010083;28;20034;-55
2024/02/13 01:41:18;;;;;;;16.17;9.30;;;10.10;99.90;;;;;;5008620;28;20481;-56
2024/02/13 01:43:45;;;;;;;14.20;8.85;;;10.10;99.90;;;;;;5006676;28;20022;-53
2024/02/13 01:46:12;;;;;;;17.73;10.73;;;10.20;99.90;;;;;;5026196;28;20494;-56
2024/02/13 01:48:38;;;;;;;18.08;10.00;;;10.20;99.90;;;;;;5009075;28;20028;-55
2024/02/13 01:51:11;;;;;;;18.48;9.80;;;10.20;99.90;;;;;;5011522;28;20095;-57
2024/02/13 01:53:37;;;;;;;;;;;10.10;99.90;;;;;;5008819;28;20061;-57
2024/02/13 01:56:05;;;;;;;18.20;10.15;;;10.10;99.90;;;;;;5003897;28;20353;-54
2024/02/13 01:58:30;;;;;;;16.23;9.02;;;10.00;99.90;;;;;;5006063;28;20061;-53
2024/02/13 02:01:00;;;;;;;18.40;9.80;;;10.00;99.90;;;;;;5010165;28;20030;-56
2024/02/13 02:03:32;;;;;;;17.33;9.00;;;10.00;99.90;;;;;;5005267;28;20038;-56
2024/02/13 02:06:01;;;;;;;21.70;11.02;;;10.00;99.90;;;;;;5009525;28;20053;-54
2024/02/13 02:08:27;;;;;;;18.52;10.23;;;10.00;99.90;;;;;;4996328;28;20070;-55
2024/02/13 02:10:57;;;;;;;17.88;10.18;;;10.00;99.90;;;;;;5008379;28;20609;-56
2024/02/13 02:13:30;;;;;;;18.48;9.18;;;10.00;99.90;;;;;;4999650;28;20029;-56
2024/02/13 02:15:57;;;;;;;21.25;9.65;;;9.90;99.90;;;;;;5011871;28;20034;-55
2024/02/13 02:18:26;;;;;;;20.52;9.65;;;9.90;99.90;;;;;;5005603;28;20030;-57
2024/02/13 02:20:52;;;;;;;21.48;8.82;;;10.00;99.90;;;;;;5009156;28;20069;-54
2024/02/13 02:23:22;;;;;;;19.20;9.45;;;10.00;99.90;;;;;;4999635;28;20050;-55
2024/02/13 02:25:48;;;;;;;20.58;8.82;;;10.00;99.90;;;;;;5008343;28;20042;-53
2024/02/13 02:28:17;;;;;;;21.00;9.55;;;10.00;99.90;;;;;;5005402;28;20483;-53
2024/02/13 02:30:44;;;;;;;18.05;9.07;;;10.00;99.90;;;;;;4997286;28;20025;-56
2024/02/13 02:33:12;;;;;;;21.83;9.73;;;9.90;99.90;;;;;;5003248;28;20029;-55
2024/02/13 02:35:38;;;;;;;20.35;9.75;;;10.00;99.90;;;;;;5006865;28;20416;-53
2024/02/13 02:38:03;;;;;;;16.85;7.53;;;10.00;99.90;;;;;;5006256;28;20111;-55
2024/02/13 02:40:29;;;;;;;18.08;8.20;;;10.00;99.90;;;;;;5006816;28;20022;-53
2024/02/13 02:42:55;;;;;;;19.52;8.07;;;10.00;99.90;;;;;;5004718;28;20445;-55
2024/02/13 02:45:21;;;;;;;15.77;7.55;;;10.00;99.90;;;;;;5007558;28;20547;-54
2024/02/13 02:47:47;;;;;;;14.57;6.85;;;10.00;99.90;;;;;;5006859;28;20023;-56
2024/02/13 02:50:13;;;;;;;15.52;7.50;;;10.10;99.90;;;;;;4996729;28;20033;-54
2024/02/13 02:52:39;;;;;;;14.98;6.35;;;10.00;99.90;;;;;;5003220;28;20026;-56
2024/02/13 02:55:08;;;;;;;14.35;6.30;;;10.00;99.90;;;;;;5009660;28;20424;-53
2024/02/13 02:57:37;;;;;;;14.82;6.90;;;10.00;99.90;;;;;;5037933;28;20117;-56
2024/02/13 03:00:09;;;;;;;11.93;6.85;;;10.00;99.90;;;;;;5003236;28;20037;-55
2024/02/13 03:02:38;;;;;;;;;;;10.00;99.90;;;;;;5004580;28;20125;-54
2024/02/13 03:05:05;;;;;;;11.88;6.15;;;10.00;99.90;;;;;;5009081;28;21285;-54
2024/02/13 03:07:32;;;;;;;11.00;6.60;;;10.00;99.90;;;;;;5003265;28;20048;-55
2024/02/13 03:09:58;;;;;;;13.68;6.00;;;10.00;99.90;;;;;;5005163;28;20109;-54
2024/02/13 03:12:24;;;;;;;13.88;6.10;;;10.00;99.90;;;;;;5014767;28;20045;-57
2024/02/13 03:14:55;;;;;;;13.05;5.63;;;10.00;99.90;;;;;;5005397;28;21930;-54
2024/02/13 03:17:22;;;;;;;12.20;5.70;;;10.00;99.90;;;;;;5007609;28;20049;-53
2024/02/13 03:19:49;;;;;;;18.50;6.28;;;10.00;99.90;;;;;;5004146;28;20030;-55
2024/02/13 03:22:16;;;;;;;11.82;6.13;;;10.00;99.90;;;;;;5018514;28;20034;-54
2024/02/13 03:24:43;;;;;;;13.00;5.88;;;9.90;99.90;;;;;;5011224;28;20033;-53
2024/02/13 03:27:09;;;;;;;12.50;6.45;;;9.90;99.90;;;;;;5005038;28;20029;-53
2024/02/13 03:29:34;;;;;;;13.52;5.78;;;9.90;99.90;;;;;;4999466;28;20022;-54
2024/02/13 03:32:00;;;;;;;10.50;5.53;;;9.90;99.90;;;;;;5004756;28;20065;-56
2024/02/13 03:34:26;;;;;;;10.50;5.95;;;9.90;99.90;;;;;;5019073;28;20113;-55
2024/02/13 03:36:51;;;;;;;12.23;6.65;;;9.90;99.90;;;;;;5006782;28;20057;-54
2024/02/13 03:39:17;;;;;;;16.20;5.78;;;9.90;99.90;;;;;;5005646;28;20030;-53
2024/02/13 03:41:46;;;;;;;13.20;5.80;;;9.90;99.90;;;;;;5004591;28;20030;-56
2024/02/13 03:44:12;;;;;;;12.32;5.95;;;9.90;99.90;;;;;;5011913;28;20030;-52
2024/02/13 03:46:39;;;;;;;12.93;5.45;;;10.00;99.90;;;;;;5005909;28;20046;-55
2024/02/13 03:49:08;;;;;;;11.65;5.25;;;10.00;99.90;;;;;;5004932;28;20036;-54
2024/02/13 03:51:38;;;;;;;13.20;5.18;;;9.90;99.90;;;;;;5013168;28;20066;-56
2024/02/13 03:54:05;;;;;;;10.88;5.82;;;9.90;99.90;;;;;;5013049;28;20033;-53
2024/02/13 03:56:31;;;;;;;10.57;5.60;;;9.90;99.90;;;;;;5008511;28;20026;-54
2024/02/13 03:58:56;;;;;;;15.05;6.30;;;9.90;99.90;;;;;;4997696;28;20034;-52
2024/02/13 04:01:22;;;;;;;11.73;4.97;;;9.90;99.90;;;;;;5008363;28;20100;-55
2024/02/13 04:03:48;;;;;;;11.45;5.28;;;9.90;99.90;;;;;;5014882;28;20034;-54
2024/02/13 04:06:13;;;;;;;10.30;5.38;;;9.90;99.90;;;;;;5014312;28;20046;-57
2024/02/13 04:08:44;;;;;;;11.80;4.95;;;9.90;99.90;;;;;;4996875;28;20049;-56
2024/02/13 04:11:10;;;;;;;22.10;6.10;;;9.90;99.90;;;;;;5003204;28;20591;-54
2024/02/13 04:13:36;;;;;;;9.20;4.90;;;9.90;99.90;;;;;;5003749;28;20030;-56
2024/02/13 04:16:02;;;;;;;8.55;5.13;;;9.80;99.90;;;;;;4982152;28;20052;-56
2024/02/13 04:18:27;;;;;;;10.68;5.47;;;9.80;99.90;;;;;;4996897;28;20041;-53
2024/02/13 04:20:53;;;;;;;14.90;5.20;;;9.70;99.90;;;;;;5009017;28;20050;-54
2024/02/13 04:23:19;;;;;;;8.75;5.00;;;9.70;99.90;;;;;;5005672;28;20026;-54
2024/02/13 04:25:45;;;;;;;9.75;5.18;;;9.70;99.90;;;;;;5008197;28;20046;-55
2024/02/13 04:28:11;;;;;;;10.02;5.13;;;9.70;99.90;;;;;;5008987;28;20034;-56
2024/02/13 04:30:40;;;;;;;8.52;5.35;;;9.60;99.90;;;;;;4995371;28;20112;-54
2024/02/13 04:33:08;;;;;;;11.73;5.32;;;9.70;99.90;;;;;;5014538;28;20045;-54
2024/02/13 04:35:34;;;;;;;9.25;4.68;;;9.70;99.90;;;;;;5009949;28;20113;-57
2024/02/13 04:38:00;;;;;;;10.05;4.93;;;9.70;99.90;;;;;;5011466;28;20040;-55
2024/02/13 04:40:26;;;;;;;10.02;4.82;;;9.60;99.90;;;;;;5007820;28;20022;-53
2024/02/13 04:42:52;;;;;;;10.48;5.18;;;9.60;99.90;;;;;;5009833;28;20034;-55
2024/02/13 04:45:18;;;;;;;11.60;5.28;;;9.60;99.90;;;;;;5011378;28;20504;-53
2024/02/13 04:47:46;;;;;;;17.55;5.35;;;9.60;99.90;;;;;;5012488;28;20030;-56
2024/02/13 04:50:13;;;;;;;8.90;4.95;;;9.60;99.90;;;;;;5005367;28;20088;-55
2024/02/13 04:52:39;;;;;;;8.82;5.35;;;9.50;99.90;;;;;;5001089;28;20065;-55
2024/02/13 04:55:05;;;;;;;8.45;4.75;;;9.50;99.90;;;;;;5011114;28;20045;-56
2024/02/13 04:57:33;;;;;;;7.45;5.20;;;9.50;99.90;;;;;;5027203;28;20044;-55
2024/02/13 05:00:02;;;;;;;8.57;5.10;;;9.40;99.90;;;;;;5010894;28;20034;-56
2024/02/13 05:02:32;;;;;;;11.13;6.10;;;9.50;99.90;;;;;;5002291;28;20034;-57
2024/02/13 05:07:44;;;;;;;15.60;9.85;;;9.40;99.90;;;;;;5008602;28;20410;-53
2024/02/13 05:10:12;;;;;;;14.63;9.63;;;9.30;99.90;;;;;;5006601;28;20038;-53
2024/02/13 05:12:38;;;;;;;13.35;6.78;;;9.30;99.90;;;;;;5011080;28;20064;-54
2024/02/13 05:15:05;;;;;;;11.13;6.70;;;9.30;99.90;;;;;;5005850;28;20109;-55
2024/02/13 05:17:31;;;;;;;10.10;5.53;;;9.20;99.90;;;;;;5008335;28;20037;-53
2024/02/13 05:19:58;;;;;;;8.68;5.45;;;9.20;99.90;;;;;;5006475;28;20117;-54
2024/02/13 05:22:24;;;;;;;7.28;5.30;;;9.20;99.90;;;;;;5010872;28;20034;-56
2024/02/13 05:24:49;;;;;;;8.05;5.30;;;9.10;99.90;;;;;;4999842;28;20049;-57
2024/02/13 05:27:15;;;;;;;9.75;5.57;;;9.10;99.90;;;;;;5011251;28;20413;-56
2024/02/13 05:29:43;;;;;;;10.48;4.88;;;9.10;99.90;;;;;;5007598;28;20077;-55
2024/02/13 05:32:09;;;;;;;8.93;5.47;;;9.00;99.90;;;;;;5001896;28;20393;-56
2024/02/13 05:34:35;;;;;;;13.60;7.65;;;9.00;99.90;;;;;;5008055;28;20038;-56
2024/02/13 05:37:02;;;;;;;7.57;5.43;;;9.00;99.90;;;;;;5010454;28;20037;-54
2024/02/13 05:39:28;;;;;;;10.82;8.15;;;9.00;99.90;;;;;;5005483;28;20046;-56
2024/02/13 05:41:55;;;;;;;15.45;10.10;;;9.00;99.90;;;;;;5007762;28;20031;-52
2024/02/13 05:44:21;;;;;;;13.15;7.97;;;9.00;99.90;;;;;;5006660;28;20046;-56
2024/02/13 05:46:48;;;;;;;9.85;6.05;;;8.90;99.90;;;;;;5006256;28;20137;-53
2024/02/13 05:49:13;;;;;;;7.22;4.95;;;8.90;99.90;;;;;;5012562;28;20069;-56
2024/02/13 05:51:39;;;;;;;11.32;5.07;;;8.90;99.90;;;;;;5021708;28;20066;-55
2024/02/13 05:54:05;;;;;;;8.30;5.28;;;8.90;99.90;;;;;;5007339;28;20048;-55
2024/02/13 05:56:35;;;;;;;7.28;5.32;;;9.00;99.90;;;;;;5006480;28;20030;-55
2024/02/13 05:59:03;;;;;;;7.32;4.43;;;9.00;99.90;;;;;;5005752;28;20038;-57
2024/02/13 06:01:29;;;;;;;8.65;4.60;;;9.10;99.90;;;;;;5008660;28;20455;-55
2024/02/13 06:04:01;;;;;;;6.50;4.20;;;9.10;99.90;;;;;;5011596;28;20033;-56
2024/02/13 06:06:27;;;;;;;7.93;4.57;;;9.20;99.90;;;;;;5005192;28;20045;-52
2024/02/13 06:08:54;;;;;;;6.97;4.30;;;9.20;99.90;;;;;;5000692;28;20065;-56
2024/02/13 06:11:21;;;;;;;7.43;4.32;;;9.30;99.90;;;;;;5008602;28;20030;-55
2024/02/13 06:13:49;;;;;;;8.65;4.80;;;9.30;99.90;;;;;;5007583;28;20038;-54
2024/02/13 06:16:18;;;;;;;10.30;5.32;;;9.30;99.90;;;;;;5005518;28;20038;-53
2024/02/13 06:18:47;;;;;;;12.95;5.32;;;9.40;99.90;;;;;;5000067;28;20033;-56
2024/02/13 06:21:15;;;;;;;9.43;5.20;;;9.40;99.90;;;;;;5001240;28;20039;-54
2024/02/13 06:23:41;;;;;;;9.80;5.05;;;9.40;99.90;;;;;;5001407;28;20034;-56
2024/02/13 06:26:08;;;;;;;12.38;6.05;;;9.50;99.90;;;;;;5006735;28;20389;-57
2024/02/13 06:28:34;;;;;;;8.95;4.80;;;;;;;;;;5005982;28;20034;-55
2024/02/13 06:30:59;;;;;;;7.15;4.55;;;11.20;99.90;;;;;;5021169;28;20038;-55
2024/02/13 06:33:26;;;;;;;7.47;5.05;;;;;;;;;;5008303;28;20447;-57
2024/02/13 06:35:51;;;;;;;9.63;5.13;;;14.40;99.90;;;;;;5005435;28;20030;-54
2024/02/13 06:38:17;;;;;;;9.07;4.60;;;;;;;;;;5004425;28;20034;-54
2024/02/13 06:40:43;;;;;;;8.18;4.00;;;;;;;;;;4999005;28;20140;-55
2024/02/13 06:43:10;;;;;;;5.57;3.78;;;;;;;;;;5020823;28;20042;-57
2024/02/13 06:45:35;;;;;;;7.82;4.40;;;18.80;92.90;;;;;;5001759;28;20053;-54
2024/02/13 06:48:02;;;;;;;5.38;4.20;;;;;;;;;;5007854;28;20394;-53
2024/02/13 06:50:27;;;;;;;7.78;4.20;;;20.30;99.90;;;;;;5001975;28;20022;-54
2024/02/13 06:52:55;;;;;;;4.82;3.45;;;20.40;90.50;;;;;;5000845;28;20413;-60
2024/02/13 06:55:22;;;;;;;9.05;3.50;;;;;;;;;;5021416;28;20470;-61
2024/02/13 06:57:48;;;;;;;6.07;4.30;;;;;;;;;;5010179;28;20030;-67
2024/02/13 07:00:14;;;;;;;7.00;4.78;;;20.20;99.90;;;;;;5010304;28;20026;-54
2024/02/13 07:02:43;;;;;;;7.93;4.43;;;20.00;90.20;;;;;;5038780;28;20046;-55
2024/02/13 07:05:10;;;;;;;7.07;4.65;;;20.30;89.10;;;;;;5005402;28;20076;-55
2024/02/13 07:07:37;;;;;;;5.78;3.90;;;;;;;;;;5006969;28;20073;-55
2024/02/13 07:10:04;;;;;;;7.93;4.53;;;21.00;88.40;;;;;;5005623;28;20034;-55
2024/02/13 07:12:30;;;;;;;71.05;34.65;;;20.60;88.10;;;;;;5035725;28;20037;-56
2024/02/13 07:14:57;;;;;;;18.02;9.20;;;;;;;;;;5003479;28;20042;-60
2024/02/13 07:17:23;;;;;;;5.55;4.00;;;21.30;86.10;;;;;;5008411;28;20053;-57
2024/02/13 07:19:50;;;;;;;6.65;4.43;;;21.00;86.80;;;;;;5006046;28;20385;-58
2024/02/13 07:22:17;;;;;;;4.70;4.07;;;21.40;86.60;;;;;;5006337;28;20045;-56
2024/02/13 07:24:43;;;;;;;24.27;13.00;;;21.40;86.10;;;;;;5016620;28;20073;-55
2024/02/13 07:27:09;;;;;;;5.05;4.55;;;20.90;85.90;;;;;;5012120;28;20045;-59
2024/02/13 07:29:40;;;;;;;3.97;3.58;;;21.20;86.20;;;;;;5008055;28;20449;-55
2024/02/13 07:32:09;;;;;;;23.83;11.52;;;20.70;86.10;;;;;;5009195;28;20388;-58
2024/02/13 07:34:38;;;;;;;8.50;5.65;;;19.60;87.50;;;;;;5004943;28;20038;-58
2024/02/13 07:37:08;;;;;;;24.35;11.77;;;;;;;;;;5006859;28;20053;-55
2024/02/13 07:39:34;;;;;;;21.02;9.13;;;21.00;86.00;;;;;;5000583;28;20041;-55
2024/02/13 07:42:01;;;;;;;9.15;6.47;;;20.10;86.60;;;;;;5006493;28;20060;-56
2024/02/13 07:44:30;;;;;;;21.35;9.82;;;19.30;87.50;;;;;;5015329;28;20122;-56
2024/02/13 07:46:57;;;;;;;9.00;4.85;;;18.60;89.40;;;;;;5016467;28;20050;-56
2024/02/13 07:49:23;;;;;;;33.22;15.27;;;;;;;;;;5018232;28;20046;-59
2024/02/13 07:51:51;;;;;;;5.07;3.85;;;;;;;;;;5000958;28;20034;-53
2024/02/13 07:54:17;;;;;;;10.27;4.95;;;;;;;;;;4998320;28;20026;-60
2024/02/13 07:56:45;;;;;;;9.15;6.80;;;;;;;;;;5008584;28;20165;-57
2024/02/13 07:59:11;;;;;;;6.07;5.47;;;17.90;92.80;;;;;;5007470;28;20482;-58
2024/02/13 08:01:37;;;;;;;8.13;5.90;;;;;;;;;;5007052;28;20508;-56
2024/02/13 08:04:04;;;;;;;5.18;4.68;;;18.60;99.90;;;;;;5001333;28;20026;-58
2024/02/13 08:06:31;;;;;;;7.85;7.05;;;;;;;;;;5003936;28;20037;-58
2024/02/13 08:08:56;;;;;;;9.30;6.90;;;20.70;99.90;;;;;;5007198;28;20425;-56
2024/02/13 08:11:22;;;;;;;5.28;4.88;;;21.50;87.30;;;;;;5022867;28;20049;-61
2024/02/13 08:13:48;;;;;;;12.10;6.32;;;21.10;85.50;;;;;;5008649;28;20054;-53
2024/02/13 08:16:14;;;;;;;8.55;7.50;;;20.60;85.80;;;;;;5007903;28;20036;-55
2024/02/13 08:18:43;;;;;;;8.45;7.20;;;21.10;85.30;;;;;;5007223;28;20023;-59
2024/02/13 08:21:09;;;;;;;20.42;10.75;;;;;;;;;;5005523;28;20036;-55
2024/02/13 08:23:34;;;;;;;14.10;11.13;;;21.90;89.80;;;;;;5005282;28;20100;-55
2024/02/13 08:26:00;;;;;;;11.95;7.75;;;21.00;85.00;;;;;;5007733;28;20138;-58
2024/02/13 08:28:26;;;;;;;24.67;15.95;;;21.30;85.20;;;;;;5009691;28;20088;-52
2024/02/13 08:30:53;;;;;;;6.43;4.70;;;20.50;85.30;;;;;;5011514;28;20034;-57
2024/02/13 08:33:22;;;;;;;7.28;4.93;;;;;;;;;;5009333;28;20076;-57
2024/02/13 08:35:52;;;;;;;9.77;6.72;;;;;;;;;;5010261;28;20022;-56
2024/02/13 08:38:19;;;;;;;15.60;8.63;;;;;;;;;;5013857;28;20061;-56
2024/02/13 08:40:45;;;;;;;14.60;8.20;;;;;;;;;;5009118;28;20100;-57
2024/02/13 08:43:11;;;;;;;13.82;8.40;;;;;;;;;;5005899;28;20500;-55
2024/02/13 08:45:37;;;;;;;4.63;3.65;;;;;;;;;;5008439;28;20046;-56
2024/02/13 08:48:04;;;;;;;6.75;4.75;;;;;;;;;;5008790;28;20041;-54
2024/02/13 08:50:31;;;;;;;5.85;4.28;;;14.20;97.00;;;;;;5002399;28;20382;-56
2024/02/13 08:52:57;;;;;;;12.43;8.27;;;;;;;;;;5005019;28;20030;-57
2024/02/13 08:55:25;;;;;;;11.93;5.07;;;;;;;;;;5008741;28;20113;-56
2024/02/13 08:57:51;;;;;;;7.07;4.55;;;13.30;99.90;;;;;;5011255;28;20031;-58
2024/02/13 09:00:18;;;;;;;2.38;1.60;;;;;;;;;;4999576;28;20410;-56
2024/02/13 09:02:46;;;;;;;4.88;3.17;;;12.40;99.90;;;;;;5006449;28;20497;-58
2024/02/13 09:05:12;;;;;;;7.90;5.38;;;12.30;99.90;;;;;;5011093;28;20108;-55
2024/02/13 09:07:38;;;;;;;4.40;2.92;;;12.50;99.90;;;;;;5007528;28;20050;-54
2024/02/13 09:10:12;;;;;;;4.20;3.25;;;12.50;99.90;;;;;;5004553;28;20033;-55
2024/02/13 09:12:45;;;;;;;3.55;2.90;;;12.50;99.90;;;;;;5018889;28;20053;-57
2024/02/13 09:15:11;;;;;;;4.28;2.67;;;12.80;99.90;;;;;;5001118;28;20105;-55
2024/02/13 09:17:55;;;;;;;3.85;2.33;;;12.80;99.90;;;;;;5007051;28;20050;-54
2024/02/13 09:20:21;;;;;;;5.50;4.80;;;12.40;99.90;;;;;;5002242;28;20172;-57
2024/02/13 09:22:48;;;;;;;5.90;4.53;;;12.40;99.90;;;;;;5009524;28;20384;-56
2024/02/13 09:25:16;;;;;;;5.40;3.90;;;12.30;99.90;;;;;;5013363;28;20474;-57
2024/02/13 09:27:48;;;;;;;2.17;1.63;;;12.80;99.90;;;;;;5006450;28;20037;-58
2024/02/13 09:30:14;;;;;;;6.23;3.67;;;12.70;99.90;;;;;;5009959;28;20382;-56
2024/02/13 09:32:40;;;;;;;7.65;3.92;;;12.30;99.90;;;;;;5004611;28;20454;-56
2024/02/13 09:35:07;;;;;;;5.50;4.05;;;12.50;99.90;;;;;;5011596;28;20122;-57
2024/02/13 09:37:39;;;;;;;2.45;2.25;;;12.30;99.90;;;;;;5008995;28;20110;-55
2024/02/13 09:40:13;;;;;;;13.73;6.70;;;11.90;99.90;;;;;;5006512;28;20132;-57
2024/02/13 09:42:40;;;;;;;4.65;3.13;;;12.00;99.90;;;;;;5018304;28;20080;-54
2024/02/13 09:45:07;;;;;;;10.20;5.70;;;11.80;99.90;;;;;;5012488;28;20057;-54
2024/02/13 09:47:34;;;;;;;13.82;6.82;;;;;;;;;;5039986;28;20440;-54
2024/02/13 09:50:00;;;;;;;10.40;7.53;;;;;;;;;;5007413;28;20358;-56
2024/02/13 09:52:29;;;;;;;4.43;4.03;;;13.40;99.90;;;;;;5006566;28;20030;-55
2024/02/13 09:54:57;;;;;;;5.88;4.28;;;13.60;99.90;;;;;;5002614;28;20053;-53
2024/02/13 09:57:24;;;;;;;7.75;5.40;;;14.50;99.90;;;;;;5003154;28;20034;-56
2024/02/13 09:59:50;;;;;;;6.25;4.00;;;;;;;;;;5003891;28;20505;-54
2024/02/13 10:02:16;;;;;;;8.13;4.57;;;;;;;;;;5004735;28;20122;-54
2024/02/13 10:04:44;;;;;;;6.15;3.60;;;15.50;95.60;;;;;;5008254;28;20081;-56
2024/02/13 10:07:10;;;;;;;5.05;3.83;;;15.10;96.50;;;;;;4984912;28;20391;-56
2024/02/13 10:09:36;;;;;;;10.13;5.13;;;14.70;97.10;;;;;;5006223;28;20036;-56
2024/02/13 10:12:12;;;;;;;14.38;8.95;;;;;;;;;;5005009;28;20023;-54
2024/02/13 10:14:38;;;;;;;16.95;9.75;;;13.70;99.90;;;;;;5009495;28;20030;-54
2024/02/13 10:17:10;;;;;;;5.75;4.30;;;13.70;99.90;;;;;;5010331;28;20025;-54
2024/02/13 10:19:38;;;;;;;10.00;4.30;;;13.50;99.90;;;;;;5012369;28;20033;-55
2024/02/13 10:22:10;;;;;;;7.28;4.70;;;13.50;99.90;;;;;;5012115;28;20056;-56
2024/02/13 10:24:35;;;;;;;;;;;13.10;99.90;;;;;;5010723;28;20046;-56
2024/02/13 10:27:03;;;;;;;7.00;5.50;;;12.90;99.90;;;;;;5007394;28;20357;-57
2024/02/13 10:29:40;;;;;;;15.95;9.45;;;12.60;99.90;;;;;;5007243;28;20061;-54
2024/02/13 10:32:07;;;;;;;6.75;5.65;;;12.40;99.90;;;;;;5008843;28;20045;-56
2024/02/13 10:34:37;;;;;;;6.75;5.70;;;12.50;99.90;;;;;;5007906;28;20038;-55
2024/02/13 10:37:07;;;;;;;8.15;5.43;;;12.50;99.90;;;;;;5010386;28;20109;-55
2024/02/13 10:39:35;;;;;;;8.65;5.55;;;12.40;99.90;;;;;;5009822;28;20030;-57
2024/02/13 10:42:08;;;;;;;8.85;6.72;;;12.60;99.90;;;;;;5010532;28;20034;-56
2024/02/13 10:44:41;;;;;;;10.07;6.65;;;12.50;99.90;;;;;;5004380;28;20113;-56
2024/02/13 10:47:10;;;;;;;7.90;5.55;;;12.60;99.90;;;;;;5012168;28;20057;-54
2024/02/13 10:49:42;;;;;;;8.65;5.68;;;12.30;99.90;;;;;;5007753;28;20025;-55
2024/02/13 10:52:08;;;;;;;5.38;4.35;;;12.30;99.90;;;;;;4999238;28;20496;-54
2024/02/13 10:54:37;;;;;;;9.30;5.38;;;12.10;99.90;;;;;;5004358;28;20465;-56
2024/02/13 10:57:06;;;;;;;8.00;6.40;;;12.10;99.90;;;;;;5000347;28;20027;-56
2024/02/13 10:59:35;;;;;;;8.13;6.53;;;12.20;99.90;;;;;;5006546;28;20037;-55
2024/02/13 11:02:01;;;;;;;7.15;5.18;;;12.30;99.90;;;;;;5010563;28;20044;-56
2024/02/13 11:04:27;;;;;;;7.13;6.03;;;12.20;99.90;;;;;;5004446;28;20469;-55
2024/02/13 11:06:56;;;;;;;4.40;3.50;;;;;;;;;;5006414;28;20068;-56
2024/02/13 11:09:22;;;;;;;5.70;4.45;;;;;;;;;;5004411;28;20030;-55
2024/02/13 11:11:48;;;;;;;5.15;3.50;;;11.90;99.90;;;;;;5006223;28;20028;-56
2024/02/13 11:14:32;;;;;;;5.60;4.43;;;11.90;99.90;;;;;;5003479;28;20029;-54
2024/02/13 11:17:09;;;;;;;5.53;4.50;;;12.20;99.90;;;;;;5018435;28;20093;-56
2024/02/13 11:19:38;;;;;;;5.20;4.25;;;12.20;99.90;;;;;;5011386;28;20092;-54
2024/02/13 11:22:08;;;;;;;4.53;3.22;;;12.30;99.90;;;;;;5003992;28;20048;-57
2024/02/13 11:25:00;;;;;;;8.35;5.28;;;12.30;99.90;;;;;;5008298;28;20033;-61
2024/02/13 11:27:26;;;;;;;4.38;2.92;;;12.40;99.90;;;;;;4994083;28;20157;-56
2024/02/13 11:30:00;;;;;;;4.82;2.35;;;12.20;99.90;;;;;;4999240;28;20038;-55
2024/02/13 11:32:28;;;;;;;22.95;8.95;;;12.20;99.90;;;;;;5006858;28;20185;-54
2024/02/13 11:35:05;;;;;;;11.57;5.22;;;;;;;;;;5010829;28;20176;-57
2024/02/13 11:37:34;;;;;;;46.65;16.60;;;;;;;;;;4995846;28;20039;-55
2024/02/13 11:40:05;;;;;;;28.33;9.93;;;;;;;;;;5000645;28;20474;-56
2024/02/13 11:42:34;;;;;;;16.45;6.20;;;;;;;;;;5001954;28;20513;-54
2024/02/13 11:45:06;;;;;;;6.93;4.22;;;;;;;;;;4999098;28;20408;-55
2024/02/13 11:47:33;;;;;;;9.75;4.20;;;;;;;;;;5003561;28;20042;-54
2024/02/13 11:49:59;;;;;;;7.57;3.63;;;;;;;;;;4989433;28;20049;-53
2024/02/13 11:52:25;;;;;;;12.32;5.43;;;;;;;;;;4980943;28;20037;-57
2024/02/13 11:54:52;;;;;;;12.15;5.05;;;;;;;;;;4982970;28;20034;-55
2024/02/13 11:57:18;;;;;;;21.63;10.73;;;;;;;;;;4981355;28;20065;-57
2024/02/13 11:59:55;;;;;;;8.38;4.25;;;;;;;;;;5005016;28;20053;-57
2024/02/13 12:02:21;;;;;;;12.30;6.00;;;;;;;;;;5004795;28;20026;-54
2024/02/13 12:04:48;;;;;;;7.32;5.65;;;;;;;;;;5009105;28;20046;-58
2024/02/13 12:07:16;;;;;;;12.25;7.35;;;;;;;;;;4978242;28;20082;-56
2024/02/13 12:09:42;;;;;;;6.97;4.05;;;;;;;;;;5009384;28;20045;-57
2024/02/13 12:12:12;;;;;;;7.25;5.43;;;;;;;;;;5003312;28;20030;-55
2024/02/13 12:14:39;;;;;;;6.68;4.45;;;;;;;;;;5000548;28;20042;-54
2024/02/13 12:17:07;;;;;;;13.75;9.30;;;;;;;;;;5003352;28;20124;-56
2024/02/13 12:19:55;;;;;;;11.57;8.93;;;;;;;;;;5005015;28;20425;-55
2024/02/13 12:22:25;;;;;;;5.68;4.40;;;;;;;;;;5002877;28;20141;-56
2024/02/13 12:24:51;;;;;;;4.65;3.65;;;;;;;;;;5000906;28;20037;-56
2024/02/13 12:27:18;;;;;;;6.88;5.53;;;;;;;;;;5006333;28;20057;-56
2024/02/13 12:29:44;;;;;;;11.07;4.57;;;;;;;;;;5003040;28;20030;-56
2024/02/13 12:32:20;;;;;;;10.02;6.05;;;;;;;;;;5010128;28;20033;-57
2024/02/13 12:34:47;;;;;;;5.22;4.72;;;13.10;99.90;;;;;;5010165;28;20076;-54
2024/02/13 12:37:17;;;;;;;5.38;4.07;;;13.20;99.90;;;;;;5000783;28;20466;-56
2024/02/13 12:39:43;;;;;;;6.72;5.38;;;13.10;99.90;;;;;;5009941;28;20038;-55
2024/02/13 12:42:12;;;;;;;4.97;4.25;;;13.00;99.90;;;;;;5030532;28;20069;-57
2024/02/13 12:44:42;;;;;;;6.53;4.57;;;13.00;99.90;;;;;;5030948;28;20053;-57
2024/02/13 12:47:08;;;;;;;5.57;3.95;;;13.10;99.90;;;;;;5028597;28;20048;-54
2024/02/13 12:49:42;;;;;;;3.40;2.80;;;13.10;99.90;;;;;;5031379;28;20101;-57
2024/02/13 12:52:11;;;;;;;4.30;3.72;;;13.30;99.90;;;;;;5029840;28;20037;-56
2024/02/13 12:54:40;;;;;;;6.15;4.32;;;13.60;99.90;;;;;;5028770;28;20404;-57
2024/02/13 12:57:05;;;;;;;5.00;4.13;;;14.10;99.40;;;;;;5030997;28;20021;-57
2024/02/13 12:59:37;;;;;;;6.68;4.68;;;14.40;98.40;;;;;;5030731;28;20185;-53
2024/02/13 13:02:05;;;;;;;;;;;14.60;99.10;;;;;;5032044;28;20512;-54
2024/02/13 13:04:31;;;;;;;6.00;4.10;;;14.40;99.60;;;;;;5029930;28;19909;-56
2024/02/13 13:06:56;;;;;;;6.53;3.60;;;14.20;98.40;;;;;;5029873;28;20041;-56